DLH1CF EDLP-EDLP
Flight info
| Callsign | DLH1CF |
|---|---|
| Flight time | 0h 44m |
| Altitude | |
| Route | |
| Aircraft | A320 |
Departure
| Time | 2026-05-06 10:19 |
|---|---|
| Airport | Paderborn Lippstadt Airport (EDLP) |
Arrival
| Time | 2026-05-06 11:03 |
|---|---|
| Airport | Paderborn Lippstadt Airport (EDLP) |
| Time | Latitude | Longitude | Altitude | Speed | Heading |
|---|---|---|---|---|---|
| 2026-05-06 10:10 | 51.61083 | 8.61862 | 730 ft | 0 kts | 147° |
| 2026-05-06 10:11 | 51.61085 | 8.61860 | 730 ft | 3 kts | 147° |
| 2026-05-06 10:12 | 51.61108 | 8.61839 | 729 ft | 4 kts | 159° |
| 2026-05-06 10:12 | 51.61133 | 8.61830 | 731 ft | 4 kts | 189° |
| 2026-05-06 10:12 | 51.61150 | 8.61843 | 730 ft | 1 kts | 237° |
| 2026-05-06 10:12 | 51.61152 | 8.61848 | 729 ft | 0 kts | 237° |
| 2026-05-06 10:14 | 51.61151 | 8.61846 | 729 ft | 0 kts | 237° |
| 2026-05-06 10:14 | 51.61148 | 8.61840 | 730 ft | 2 kts | 236° |
| 2026-05-06 10:15 | 51.61138 | 8.61811 | 729 ft | 4 kts | 242° |
| 2026-05-06 10:15 | 51.61139 | 8.61774 | 730 ft | 5 kts | 292° |
| 2026-05-06 10:15 | 51.61195 | 8.61707 | 720 ft | 15 kts | 326° |
| 2026-05-06 10:15 | 51.61192 | 8.61586 | 718 ft | 12 kts | 240° |
| 2026-05-06 10:16 | 51.61146 | 8.61473 | 720 ft | 13 kts | 239° |
| 2026-05-06 10:16 | 51.61097 | 8.61350 | 719 ft | 13 kts | 231° |
| 2026-05-06 10:16 | 51.61055 | 8.61261 | 719 ft | 10 kts | 233° |
| 2026-05-06 10:16 | 51.61011 | 8.61165 | 717 ft | 11 kts | 248° |
| 2026-05-06 10:17 | 51.60975 | 8.61055 | 720 ft | 12 kts | 237° |
| 2026-05-06 10:17 | 51.60926 | 8.60934 | 720 ft | 14 kts | 234° |
| 2026-05-06 10:17 | 51.60875 | 8.60821 | 717 ft | 12 kts | 238° |
| 2026-05-06 10:17 | 51.60825 | 8.60689 | 714 ft | 15 kts | 238° |
| 2026-05-06 10:18 | 51.60782 | 8.60573 | 713 ft | 12 kts | 238° |
| 2026-05-06 10:18 | 51.60754 | 8.60449 | 715 ft | 10 kts | 274° |
| 2026-05-06 10:18 | 51.60776 | 8.60378 | 715 ft | 4 kts | 329° |
| 2026-05-06 10:18 | 51.60863 | 8.60355 | 716 ft | 19 kts | 20° |
| 2026-05-06 10:19 | 51.61027 | 8.60687 | 714 ft | 83 kts | 56° |
| 2026-05-06 10:19 | 51.61517 | 8.61891 | 763 ft | 164 kts | 55° |
| 2026-05-06 10:19 | 51.62155 | 8.63514 | 1480 ft | 177 kts | 57° |
| 2026-05-06 10:19 | 51.62846 | 8.65290 | 2072 ft | 200 kts | 55° |
| 2026-05-06 10:20 | 51.63663 | 8.67260 | 2649 ft | 223 kts | 58° |
| 2026-05-06 10:20 | 51.64310 | 8.69713 | 2962 ft | 256 kts | 76° |
| 2026-05-06 10:20 | 51.64672 | 8.72596 | 2997 ft | 265 kts | 79° |
| 2026-05-06 10:20 | 51.64985 | 8.75534 | 3002 ft | 266 kts | 87° |
| 2026-05-06 10:21 | 51.64703 | 8.78463 | 3004 ft | 267 kts | 113° |
| 2026-05-06 10:21 | 51.63734 | 8.81003 | 3000 ft | 267 kts | 127° |
| 2026-05-06 10:21 | 51.62658 | 8.83444 | 2996 ft | 268 kts | 127° |
| 2026-05-06 10:21 | 51.61576 | 8.85897 | 3004 ft | 269 kts | 127° |
| 2026-05-06 10:22 | 51.60503 | 8.88346 | 3000 ft | 269 kts | 127° |
| 2026-05-06 10:22 | 51.59254 | 8.90540 | 3002 ft | 267 kts | 148° |
| 2026-05-06 10:22 | 51.57559 | 8.91583 | 2997 ft | 259 kts | 176° |
| 2026-05-06 10:22 | 51.55849 | 8.91216 | 2998 ft | 237 kts | 206° |
| 2026-05-06 10:23 | 51.54615 | 8.89618 | 3000 ft | 231 kts | 237° |
| 2026-05-06 10:23 | 51.54122 | 8.87305 | 2999 ft | 211 kts | 269° |
| 2026-05-06 10:23 | 51.54499 | 8.85249 | 3003 ft | 183 kts | 305° |
| 2026-05-06 10:23 | 51.55480 | 8.83998 | 3011 ft | 182 kts | 328° |
| 2026-05-06 10:24 | 51.56565 | 8.82994 | 3000 ft | 176 kts | 323° |
| 2026-05-06 10:24 | 51.57443 | 8.81785 | 2997 ft | 163 kts | 309° |
| 2026-05-06 10:24 | 51.58122 | 8.80330 | 2998 ft | 160 kts | 300° |
| 2026-05-06 10:24 | 51.58653 | 8.78747 | 3002 ft | 162 kts | 294° |
| 2026-05-06 10:25 | 51.59106 | 8.77102 | 2999 ft | 160 kts | 290° |
| 2026-05-06 10:25 | 51.59521 | 8.75445 | 2996 ft | 159 kts | 289° |
| 2026-05-06 10:25 | 51.59927 | 8.73774 | 2996 ft | 161 kts | 289° |
| 2026-05-06 10:25 | 51.60329 | 8.72124 | 3003 ft | 161 kts | 290° |
| 2026-05-06 10:26 | 51.60734 | 8.70467 | 3001 ft | 159 kts | 290° |
| 2026-05-06 10:26 | 51.61146 | 8.68792 | 2999 ft | 161 kts | 290° |
| 2026-05-06 10:26 | 51.61559 | 8.67125 | 3002 ft | 159 kts | 290° |
| 2026-05-06 10:26 | 51.61971 | 8.65461 | 3001 ft | 160 kts | 290° |
| 2026-05-06 10:27 | 51.62251 | 8.63747 | 3000 ft | 159 kts | 270° |
| 2026-05-06 10:27 | 51.62020 | 8.62009 | 2994 ft | 158 kts | 253° |
| 2026-05-06 10:27 | 51.61707 | 8.60339 | 3002 ft | 150 kts | 254° |
| 2026-05-06 10:27 | 51.61413 | 8.58736 | 3002 ft | 150 kts | 254° |
| 2026-05-06 10:28 | 51.61124 | 8.57128 | 3002 ft | 149 kts | 254° |
| 2026-05-06 10:28 | 51.60841 | 8.55541 | 2998 ft | 148 kts | 255° |
| 2026-05-06 10:28 | 51.60558 | 8.53956 | 3008 ft | 147 kts | 254° |
| 2026-05-06 10:28 | 51.60286 | 8.52435 | 3000 ft | 138 kts | 255° |
| 2026-05-06 10:29 | 51.60022 | 8.50954 | 3005 ft | 137 kts | 255° |
| 2026-05-06 10:29 | 51.59757 | 8.49467 | 3004 ft | 140 kts | 255° |
| 2026-05-06 10:29 | 51.59490 | 8.47971 | 3008 ft | 139 kts | 254° |
| 2026-05-06 10:29 | 51.59225 | 8.46485 | 2999 ft | 137 kts | 254° |
| 2026-05-06 10:30 | 51.58956 | 8.44994 | 3002 ft | 138 kts | 254° |
| 2026-05-06 10:30 | 51.58690 | 8.43523 | 3017 ft | 137 kts | 254° |
| 2026-05-06 10:30 | 51.58428 | 8.42035 | 3014 ft | 139 kts | 256° |
| 2026-05-06 10:30 | 51.58172 | 8.40545 | 3014 ft | 138 kts | 256° |
| 2026-05-06 10:31 | 51.57914 | 8.39071 | 3012 ft | 139 kts | 255° |
| 2026-05-06 10:31 | 51.57357 | 8.37874 | 3015 ft | 142 kts | 206° |
| 2026-05-06 10:31 | 51.56393 | 8.38074 | 3013 ft | 151 kts | 146° |
| 2026-05-06 10:31 | 51.55923 | 8.39555 | 3020 ft | 153 kts | 100° |
| 2026-05-06 10:32 | 51.55864 | 8.41274 | 3006 ft | 154 kts | 89° |
| 2026-05-06 10:32 | 51.55898 | 8.42998 | 3006 ft | 153 kts | 87° |
| 2026-05-06 10:32 | 51.55973 | 8.44715 | 3025 ft | 155 kts | 77° |
| 2026-05-06 10:32 | 51.56437 | 8.46244 | 3030 ft | 154 kts | 58° |
| 2026-05-06 10:33 | 51.56918 | 8.47821 | 2588 ft | 159 kts | 67° |
| 2026-05-06 10:33 | 51.57332 | 8.49336 | 2472 ft | 152 kts | 62° |
| 2026-05-06 10:33 | 51.57831 | 8.50781 | 2513 ft | 138 kts | 58° |
| 2026-05-06 10:33 | 51.58300 | 8.52112 | 2912 ft | 145 kts | 58° |
| 2026-05-06 10:34 | 51.58828 | 8.53587 | 3026 ft | 156 kts | 58° |
| 2026-05-06 10:34 | 51.59359 | 8.55075 | 3025 ft | 153 kts | 58° |
| 2026-05-06 10:34 | 51.59903 | 8.56602 | 2589 ft | 166 kts | 59° |
| 2026-05-06 10:34 | 51.60470 | 8.58328 | 1570 ft | 177 kts | 63° |
| 2026-05-06 10:35 | 51.60918 | 8.60064 | 1086 ft | 161 kts | 66° |
| 2026-05-06 10:35 | 51.61272 | 8.61779 | 1142 ft | 181 kts | 69° |
| 2026-05-06 10:35 | 51.61848 | 8.63515 | 1720 ft | 186 kts | 53° |
| 2026-05-06 10:35 | 51.62625 | 8.65170 | 2333 ft | 192 kts | 49° |
| 2026-05-06 10:36 | 51.63486 | 8.66907 | 2828 ft | 202 kts | 50° |
| 2026-05-06 10:36 | 51.64317 | 8.68717 | 2977 ft | 201 kts | 53° |
| 2026-05-06 10:36 | 51.65121 | 8.70592 | 3023 ft | 201 kts | 54° |
| 2026-05-06 10:36 | 51.65707 | 8.72619 | 3035 ft | 203 kts | 82° |
| 2026-05-06 10:37 | 51.65515 | 8.74820 | 3031 ft | 201 kts | 119° |
| 2026-05-06 10:37 | 51.64567 | 8.76420 | 3029 ft | 198 kts | 156° |
| 2026-05-06 10:37 | 51.63261 | 8.76777 | 3036 ft | 192 kts | 193° |
| 2026-05-06 10:37 | 51.62130 | 8.75784 | 3039 ft | 185 kts | 231° |
| 2026-05-06 10:38 | 51.61724 | 8.74595 | 3046 ft | 187 kts | 254° |
| 2026-05-06 10:38 | 51.61858 | 8.71878 | 3031 ft | 186 kts | 282° |
| 2026-05-06 10:38 | 51.62140 | 8.69834 | 3027 ft | 188 kts | 280° |
| 2026-05-06 10:38 | 51.62314 | 8.67758 | 3025 ft | 187 kts | 274° |
| 2026-05-06 10:39 | 51.62370 | 8.65659 | 3025 ft | 186 kts | 270° |
| 2026-05-06 10:39 | 51.62358 | 8.64283 | 3035 ft | 186 kts | 266° |
| 2026-05-06 10:39 | 51.62078 | 8.62256 | 3029 ft | 187 kts | 254° |
| 2026-05-06 10:39 | 51.61709 | 8.60260 | 3030 ft | 184 kts | 254° |
| 2026-05-06 10:40 | 51.61344 | 8.58271 | 3026 ft | 186 kts | 254° |
| 2026-05-06 10:40 | 51.60980 | 8.56262 | 3030 ft | 187 kts | 254° |
| 2026-05-06 10:40 | 51.60504 | 8.53623 | 3031 ft | 185 kts | 254° |
| 2026-05-06 10:40 | 51.60146 | 8.51625 | 3034 ft | 186 kts | 254° |
| 2026-05-06 10:41 | 51.59789 | 8.49641 | 3032 ft | 187 kts | 254° |
| 2026-05-06 10:41 | 51.59553 | 8.48317 | 3031 ft | 185 kts | 254° |
| 2026-05-06 10:41 | 51.59195 | 8.46314 | 3028 ft | 186 kts | 254° |
| 2026-05-06 10:41 | 51.58834 | 8.44310 | 3028 ft | 186 kts | 254° |
| 2026-05-06 10:42 | 51.58474 | 8.42316 | 3016 ft | 187 kts | 254° |
| 2026-05-06 10:42 | 51.58114 | 8.40316 | 3019 ft | 187 kts | 254° |
| 2026-05-06 10:42 | 51.57598 | 8.37691 | 3009 ft | 179 kts | 243° |
| 2026-05-06 10:42 | 51.56794 | 8.36435 | 3007 ft | 151 kts | 208° |
| 2026-05-06 10:43 | 51.56143 | 8.36143 | 3003 ft | 138 kts | 187° |
| 2026-05-06 10:43 | 51.55207 | 8.36087 | 3023 ft | 132 kts | 186° |
| 2026-05-06 10:43 | 51.54324 | 8.36001 | 3012 ft | 125 kts | 187° |
| 2026-05-06 10:44 | 51.52602 | 8.36176 | 3006 ft | 133 kts | 144° |
| 2026-05-06 10:44 | 51.52197 | 8.37480 | 3020 ft | 135 kts | 94° |
| 2026-05-06 10:44 | 51.52353 | 8.38934 | 3014 ft | 135 kts | 68° |
| 2026-05-06 10:44 | 51.52776 | 8.40280 | 3015 ft | 135 kts | 57° |
| 2026-05-06 10:45 | 51.53269 | 8.41537 | 3011 ft | 133 kts | 54° |
| 2026-05-06 10:45 | 51.53771 | 8.42780 | 3010 ft | 133 kts | 55° |
| 2026-05-06 10:45 | 51.54276 | 8.44029 | 3024 ft | 133 kts | 54° |
| 2026-05-06 10:45 | 51.54781 | 8.45278 | 2937 ft | 135 kts | 55° |
| 2026-05-06 10:46 | 51.55288 | 8.46531 | 2772 ft | 133 kts | 54° |
| 2026-05-06 10:46 | 51.55797 | 8.47788 | 2600 ft | 133 kts | 55° |
| 2026-05-06 10:46 | 51.56295 | 8.49019 | 2423 ft | 131 kts | 54° |
| 2026-05-06 10:46 | 51.56787 | 8.50233 | 2251 ft | 127 kts | 55° |
| 2026-05-06 10:47 | 51.57271 | 8.51425 | 2072 ft | 128 kts | 54° |
| 2026-05-06 10:47 | 51.57751 | 8.52611 | 1893 ft | 127 kts | 54° |
| 2026-05-06 10:47 | 51.58230 | 8.53793 | 1719 ft | 125 kts | 55° |
| 2026-05-06 10:47 | 51.58702 | 8.54955 | 1535 ft | 126 kts | 53° |
| 2026-05-06 10:48 | 51.59176 | 8.56127 | 1356 ft | 125 kts | 54° |
| 2026-05-06 10:48 | 51.59650 | 8.57294 | 1190 ft | 124 kts | 53° |
| 2026-05-06 10:48 | 51.60119 | 8.58449 | 1018 ft | 123 kts | 52° |
| 2026-05-06 10:48 | 51.60586 | 8.59602 | 851 ft | 124 kts | 53° |
| 2026-05-06 10:49 | 51.61038 | 8.60740 | 715 ft | 113 kts | 54° |
| 2026-05-06 10:49 | 51.61515 | 8.61883 | 930 ft | 140 kts | 53° |
| 2026-05-06 10:49 | 51.62088 | 8.63200 | 1716 ft | 151 kts | 52° |
| 2026-05-06 10:49 | 51.62735 | 8.64666 | 2300 ft | 171 kts | 52° |
| 2026-05-06 10:50 | 51.63407 | 8.66332 | 2769 ft | 185 kts | 66° |
| 2026-05-06 10:50 | 51.63512 | 8.68443 | 2962 ft | 198 kts | 105° |
| 2026-05-06 10:50 | 51.62793 | 8.70293 | 3002 ft | 196 kts | 143° |
| 2026-05-06 10:50 | 51.61552 | 8.71034 | 2983 ft | 194 kts | 184° |
| 2026-05-06 10:51 | 51.60295 | 8.70366 | 2995 ft | 189 kts | 221° |
| 2026-05-06 10:51 | 51.59618 | 8.68638 | 3006 ft | 186 kts | 260° |
| 2026-05-06 10:51 | 51.59799 | 8.66616 | 3005 ft | 188 kts | 298° |
| 2026-05-06 10:51 | 51.60706 | 8.65120 | 3003 ft | 190 kts | 329° |
| 2026-05-06 10:52 | 51.61898 | 8.64254 | 2989 ft | 190 kts | 324° |
| 2026-05-06 10:52 | 51.62706 | 8.62655 | 3006 ft | 186 kts | 287° |
| 2026-05-06 10:52 | 51.62721 | 8.60619 | 3000 ft | 183 kts | 251° |
| 2026-05-06 10:52 | 51.62157 | 8.58890 | 3026 ft | 164 kts | 239° |
| 2026-05-06 10:53 | 51.61571 | 8.57424 | 2996 ft | 147 kts | 240° |
| 2026-05-06 10:53 | 51.61112 | 8.56089 | 2991 ft | 127 kts | 245° |
| 2026-05-06 10:53 | 51.60747 | 8.54747 | 3002 ft | 133 kts | 250° |
| 2026-05-06 10:53 | 51.60443 | 8.53366 | 3004 ft | 129 kts | 253° |
| 2026-05-06 10:54 | 51.60180 | 8.51981 | 3001 ft | 130 kts | 255° |
| 2026-05-06 10:54 | 51.59931 | 8.50579 | 2999 ft | 130 kts | 255° |
| 2026-05-06 10:54 | 51.59690 | 8.49201 | 3006 ft | 130 kts | 255° |
| 2026-05-06 10:54 | 51.59446 | 8.47809 | 2998 ft | 128 kts | 255° |
| 2026-05-06 10:55 | 51.59200 | 8.46416 | 2999 ft | 129 kts | 254° |
| 2026-05-06 10:55 | 51.58952 | 8.45031 | 2999 ft | 131 kts | 254° |
| 2026-05-06 10:55 | 51.58704 | 8.43625 | 2989 ft | 131 kts | 258° |
| 2026-05-06 10:55 | 51.58482 | 8.42217 | 2993 ft | 129 kts | 258° |
| 2026-05-06 10:56 | 51.58253 | 8.40808 | 2994 ft | 131 kts | 257° |
| 2026-05-06 10:56 | 51.58011 | 8.39400 | 2987 ft | 130 kts | 256° |
| 2026-05-06 10:56 | 51.57731 | 8.38030 | 2985 ft | 131 kts | 242° |
| 2026-05-06 10:56 | 51.57089 | 8.37028 | 2987 ft | 134 kts | 208° |
| 2026-05-06 10:57 | 51.56179 | 8.36706 | 2999 ft | 136 kts | 190° |
| 2026-05-06 10:57 | 51.55241 | 8.36521 | 3001 ft | 136 kts | 190° |
| 2026-05-06 10:57 | 51.54307 | 8.36326 | 2993 ft | 135 kts | 191° |
| 2026-05-06 10:57 | 51.53367 | 8.36198 | 2974 ft | 135 kts | 175° |
| 2026-05-06 10:58 | 51.52585 | 8.37021 | 3012 ft | 146 kts | 120° |
| 2026-05-06 10:58 | 51.52434 | 8.38584 | 2996 ft | 145 kts | 80° |
| 2026-05-06 10:58 | 51.52748 | 8.40081 | 2992 ft | 135 kts | 62° |
| 2026-05-06 10:58 | 51.53206 | 8.41349 | 2989 ft | 133 kts | 56° |
| 2026-05-06 10:59 | 51.53703 | 8.42614 | 2992 ft | 132 kts | 55° |
| 2026-05-06 10:59 | 51.54202 | 8.43844 | 3006 ft | 134 kts | 54° |
| 2026-05-06 10:59 | 51.54708 | 8.45098 | 2962 ft | 135 kts | 55° |
| 2026-05-06 10:59 | 51.55219 | 8.46360 | 2807 ft | 133 kts | 55° |
| 2026-05-06 11:00 | 51.55715 | 8.47585 | 2625 ft | 129 kts | 54° |
| 2026-05-06 11:00 | 51.56213 | 8.48816 | 2448 ft | 131 kts | 54° |
| 2026-05-06 11:00 | 51.56709 | 8.50037 | 2274 ft | 130 kts | 53° |
| 2026-05-06 11:00 | 51.57190 | 8.51233 | 2099 ft | 128 kts | 52° |
| 2026-05-06 11:01 | 51.57672 | 8.52421 | 1919 ft | 126 kts | 54° |
| 2026-05-06 11:01 | 51.58150 | 8.53598 | 1747 ft | 126 kts | 53° |
| 2026-05-06 11:01 | 51.58620 | 8.54759 | 1556 ft | 126 kts | 53° |
| 2026-05-06 11:01 | 51.59098 | 8.55934 | 1384 ft | 125 kts | 53° |
| 2026-05-06 11:02 | 51.59568 | 8.57096 | 1215 ft | 123 kts | 53° |
| 2026-05-06 11:02 | 51.60033 | 8.58243 | 1046 ft | 122 kts | 53° |
| 2026-05-06 11:02 | 51.60507 | 8.59404 | 869 ft | 125 kts | 53° |
| 2026-05-06 11:02 | 51.60952 | 8.60537 | 734 ft | 113 kts | 52° |
| 2026-05-06 11:03 | 51.61356 | 8.61480 | 713 ft | 89 kts | 53° |
| 2026-05-06 11:03 | 51.61646 | 8.62207 | 694 ft | 64 kts | 58° |
| 2026-05-06 11:03 | 51.61820 | 8.62639 | 685 ft | 34 kts | 57° |
| 2026-05-06 11:03 | 51.61933 | 8.62910 | 681 ft | 17 kts | 84° |
| 2026-05-06 11:04 | 51.61888 | 8.63041 | 681 ft | 13 kts | 141° |
| 2026-05-06 11:04 | 51.61798 | 8.63049 | 679 ft | 14 kts | 221° |
| 2026-05-06 11:04 | 51.61729 | 8.62956 | 682 ft | 9 kts | 239° |
| 2026-05-06 11:04 | 51.61699 | 8.62832 | 683 ft | 17 kts | 249° |
| 2026-05-06 11:05 | 51.61637 | 8.62677 | 696 ft | 17 kts | 233° |
| 2026-05-06 11:05 | 51.61574 | 8.62521 | 695 ft | 17 kts | 237° |
| 2026-05-06 11:05 | 51.61509 | 8.62365 | 701 ft | 17 kts | 240° |
| 2026-05-06 11:05 | 51.61448 | 8.62214 | 715 ft | 16 kts | 236° |
| 2026-05-06 11:06 | 51.61387 | 8.62072 | 719 ft | 15 kts | 226° |
| 2026-05-06 11:06 | 51.61291 | 8.61997 | 723 ft | 11 kts | 192° |
| 2026-05-06 11:06 | 51.61231 | 8.61979 | 731 ft | 7 kts | 191° |
| 2026-05-06 11:06 | 51.61188 | 8.61933 | 730 ft | 5 kts | 234° |
| 2026-05-06 11:07 | 51.61176 | 8.61906 | 731 ft | 4 kts | 236° |
| 2026-05-06 11:07 | 51.61152 | 8.61894 | 731 ft | 4 kts | 159° |
| 2026-05-06 11:07 | 51.61128 | 8.61918 | 730 ft | 1 kts | 149° |
| 2026-05-06 11:07 | 51.61119 | 8.61927 | 731 ft | 0 kts | 148° |
| 2026-05-06 11:08 | 51.61115 | 8.61931 | 731 ft | 0 kts | 147° |